sensor_id;sensor_type;location;lat;lon;timestamp;pressure;altitude;pressure_sealevel;temperature;humidity
59315;BME280;46521;50.160;20.802;2023-05-10T00:11:37;100060.13;;;8.16;47.02
59315;BME280;46521;50.160;20.802;2023-05-10T00:21:39;100059.31;;;8.05;47.63
59315;BME280;46521;50.160;20.802;2023-05-10T00:31:40;100057.52;;;7.96;48.26
59315;BME280;46521;50.160;20.802;2023-05-10T00:41:41;100048.55;;;7.89;47.67
59315;BME280;46521;50.160;20.802;2023-05-10T00:51:43;100045.79;;;7.81;47.97
59315;BME280;46521;50.160;20.802;2023-05-10T01:01:45;100037.45;;;7.75;48.67
59315;BME280;46521;50.160;20.802;2023-05-10T01:11:48;100025.55;;;7.62;48.83
59315;BME280;46521;50.160;20.802;2023-05-10T01:23:05;100031.39;;;7.65;49.26
59315;BME280;46521;50.160;20.802;2023-05-10T01:32:45;100019.33;;;7.63;49.17
59315;BME280;46521;50.160;20.802;2023-05-10T01:42:54;100026.54;;;7.61;49.39
59315;BME280;46521;50.160;20.802;2023-05-10T01:53:02;100012.52;;;7.60;49.94
59315;BME280;46521;50.160;20.802;2023-05-10T02:03:07;100007.14;;;7.52;49.92
59315;BME280;46521;50.160;20.802;2023-05-10T02:13:10;99992.61;;;7.48;49.43
59315;BME280;46521;50.160;20.802;2023-05-10T02:23:13;99995.23;;;7.38;50.37
59315;BME280;46521;50.160;20.802;2023-05-10T02:33:15;99992.47;;;7.30;51.00
59315;BME280;46521;50.160;20.802;2023-05-10T02:43:18;99983.77;;;7.19;51.20
59315;BME280;46521;50.160;20.802;2023-05-10T02:53:23;99999.23;;;7.13;51.37
59315;BME280;46521;50.160;20.802;2023-05-10T03:03:26;99995.23;;;7.09;51.01
59315;BME280;46521;50.160;20.802;2023-05-10T03:24:03;99988.58;;;7.04;51.50
59315;BME280;46521;50.160;20.802;2023-05-10T03:34:07;99998.14;;;7.06;51.92
59315;BME280;46521;50.160;20.802;2023-05-10T03:44:09;100002.00;;;7.01;51.63
59315;BME280;46521;50.160;20.802;2023-05-10T03:54:10;99984.99;;;7.06;51.53
59315;BME280;46521;50.160;20.802;2023-05-10T04:04:12;99982.09;;;7.09;52.33
59315;BME280;46521;50.160;20.802;2023-05-10T04:14:13;99989.84;;;7.20;51.66
59315;BME280;46521;50.160;20.802;2023-05-10T04:24:15;99997.04;;;7.37;52.30
59315;BME280;46521;50.160;20.802;2023-05-10T04:34:16;100008.25;;;7.59;52.45
59315;BME280;46521;50.160;20.802;2023-05-10T04:44:18;100004.13;;;8.14;52.21
59315;BME280;46521;50.160;20.802;2023-05-10T04:54:20;99992.47;;;8.99;52.83
59315;BME280;46521;50.160;20.802;2023-05-10T05:04:21;99985.81;;;9.93;51.40
59315;BME280;46521;50.160;20.802;2023-05-10T05:14:24;99984.70;;;10.65;51.17
59315;BME280;46521;50.160;20.802;2023-05-10T05:24:28;99988.30;;;11.31;50.60
59315;BME280;46521;50.160;20.802;2023-05-10T05:34:29;99990.28;;;11.95;50.05
59315;BME280;46521;50.160;20.802;2023-05-10T05:44:31;99994.05;;;12.65;49.97
59315;BME280;46521;50.160;20.802;2023-05-10T05:54:32;99987.09;;;13.19;49.19
59315;BME280;46521;50.160;20.802;2023-05-10T06:04:34;99986.58;;;13.84;48.28
59315;BME280;46521;50.160;20.802;2023-05-10T06:14:35;99986.30;;;14.54;47.77
59315;BME280;46521;50.160;20.802;2023-05-10T06:24:37;99976.59;;;14.98;47.40
59315;BME280;46521;50.160;20.802;2023-05-10T06:34:38;99978.05;;;15.22;45.91
59315;BME280;46521;50.160;20.802;2023-05-10T06:44:40;99977.09;;;15.51;45.90
59315;BME280;46521;50.160;20.802;2023-05-10T06:54:42;99978.64;;;15.89;44.58
59315;BME280;46521;50.160;20.802;2023-05-10T07:04:44;99983.64;;;16.33;44.07
59315;BME280;46521;50.160;20.802;2023-05-10T07:14:45;99977.54;;;17.08;44.46
59315;BME280;46521;50.160;20.802;2023-05-10T07:24:47;99968.32;;;17.51;43.77
59315;BME280;46521;50.160;20.802;2023-05-10T07:34:49;99968.34;;;17.77;43.38
59315;BME280;46521;50.160;20.802;2023-05-10T07:44:50;99973.84;;;18.16;42.84
59315;BME280;46521;50.160;20.802;2023-05-10T07:54:52;99972.73;;;18.44;41.78
59315;BME280;46521;50.160;20.802;2023-05-10T08:04:54;99966.66;;;18.62;41.04
59315;BME280;46521;50.160;20.802;2023-05-10T08:14:56;99960.00;;;18.84;40.65
59315;BME280;46521;50.160;20.802;2023-05-10T08:24:58;99963.03;;;19.26;40.06
59315;BME280;46521;50.160;20.802;2023-05-10T08:35:00;99958.42;;;19.34;39.23
59315;BME280;46521;50.160;20.802;2023-05-10T08:45:02;99962.32;;;19.38;38.91
59315;BME280;46521;50.160;20.802;2023-05-10T08:55:04;99968.61;;;19.75;38.47
59315;BME280;46521;50.160;20.802;2023-05-10T09:05:06;99966.44;;;19.66;37.61
59315;BME280;46521;50.160;20.802;2023-05-10T09:15:09;99972.10;;;19.76;36.92
59315;BME280;46521;50.160;20.802;2023-05-10T09:25:12;99961.73;;;19.86;36.44
59315;BME280;46521;50.160;20.802;2023-05-10T09:35:19;99955.03;;;19.95;35.66
59315;BME280;46521;50.160;20.802;2023-05-10T09:45:22;99955.45;;;20.11;36.17
59315;BME280;46521;50.160;20.802;2023-05-10T09:55:45;99938.75;;;20.46;35.20
59315;BME280;46521;50.160;20.802;2023-05-10T10:05:48;99931.30;;;20.78;34.89
59315;BME280;46521;50.160;20.802;2023-05-10T10:15:50;99929.28;;;20.25;34.91
59315;BME280;46521;50.160;20.802;2023-05-10T10:25:53;99928.48;;;20.73;34.68
59315;BME280;46521;50.160;20.802;2023-05-10T10:35:58;99915.03;;;21.03;34.15
59315;BME280;46521;50.160;20.802;2023-05-10T10:46:13;99900.95;;;20.59;33.77
59315;BME280;46521;50.160;20.802;2023-05-10T10:56:14;99895.83;;;20.88;33.23
59315;BME280;46521;50.160;20.802;2023-05-10T11:06:28;99878.24;;;21.39;33.28
59315;BME280;46521;50.160;20.802;2023-05-10T11:16:41;99885.16;;;21.71;32.97
59315;BME280;46521;50.160;20.802;2023-05-10T11:26:44;99869.20;;;21.93;32.32
59315;BME280;46521;50.160;20.802;2023-05-10T11:36:51;99864.66;;;21.34;32.38
59315;BME280;46521;50.160;20.802;2023-05-10T11:46:52;99862.89;;;21.28;31.80
59315;BME280;46521;50.160;20.802;2023-05-10T11:56:54;99843.56;;;20.84;32.25
59315;BME280;46521;50.160;20.802;2023-05-10T12:06:55;99851.55;;;21.02;31.88
59315;BME280;46521;50.160;20.802;2023-05-10T12:16:57;99846.83;;;20.86;31.72
59315;BME280;46521;50.160;20.802;2023-05-10T12:26:59;99839.38;;;20.88;31.39
59315;BME280;46521;50.160;20.802;2023-05-10T12:37:01;99833.06;;;21.06;31.05
59315;BME280;46521;50.160;20.802;2023-05-10T12:47:03;99828.99;;;21.03;31.25
59315;BME280;46521;50.160;20.802;2023-05-10T12:57:04;99811.66;;;20.87;31.05
59315;BME280;46521;50.160;20.802;2023-05-10T13:07:06;99798.23;;;20.99;31.11
59315;BME280;46521;50.160;20.802;2023-05-10T13:17:08;99795.64;;;20.81;30.76
59315;BME280;46521;50.160;20.802;2023-05-10T13:27:09;99793.23;;;20.61;30.93
59315;BME280;46521;50.160;20.802;2023-05-10T13:37:11;99788.42;;;20.39;30.52
59315;BME280;46521;50.160;20.802;2023-05-10T13:47:12;99768.53;;;20.28;30.53
59315;BME280;46521;50.160;20.802;2023-05-10T13:57:14;99773.05;;;20.16;30.52
59315;BME280;46521;50.160;20.802;2023-05-10T14:07:17;99758.88;;;20.09;30.97
59315;BME280;46521;50.160;20.802;2023-05-10T14:17:19;99747.83;;;19.87;30.58
59315;BME280;46521;50.160;20.802;2023-05-10T14:27:20;99741.34;;;19.57;30.79
59315;BME280;46521;50.160;20.802;2023-05-10T14:37:22;99741.51;;;19.62;30.81
59315;BME280;46521;50.160;20.802;2023-05-10T14:47:24;99740.76;;;19.55;30.94
59315;BME280;46521;50.160;20.802;2023-05-10T14:57:25;99737.94;;;19.50;30.54
59315;BME280;46521;50.160;20.802;2023-05-10T15:07:27;99734.22;;;19.33;30.78
59315;BME280;46521;50.160;20.802;2023-05-10T15:17:28;99725.87;;;19.22;30.81
59315;BME280;46521;50.160;20.802;2023-05-10T15:27:30;99726.61;;;19.11;30.68
59315;BME280;46521;50.160;20.802;2023-05-10T15:37:31;99724.45;;;19.01;30.74
59315;BME280;46521;50.160;20.802;2023-05-10T15:47:33;99719.03;;;18.83;30.77
59315;BME280;46521;50.160;20.802;2023-05-10T15:57:34;99724.41;;;18.58;30.77
59315;BME280;46521;50.160;20.802;2023-05-10T16:07:36;99721.14;;;18.24;31.20
59315;BME280;46521;50.160;20.802;2023-05-10T16:17:37;99740.91;;;17.91;31.38
59315;BME280;46521;50.160;20.802;2023-05-10T16:27:39;99738.33;;;17.64;31.70
59315;BME280;46521;50.160;20.802;2023-05-10T16:37:40;99735.77;;;17.24;31.50
59315;BME280;46521;50.160;20.802;2023-05-10T16:47:42;99747.56;;;16.96;31.79
59315;BME280;46521;50.160;20.802;2023-05-10T16:57:43;99739.95;;;16.73;31.64
59315;BME280;46521;50.160;20.802;2023-05-10T17:07:45;99753.28;;;16.60;32.27
59315;BME280;46521;50.160;20.802;2023-05-10T17:17:46;99762.11;;;16.33;32.14
59315;BME280;46521;50.160;20.802;2023-05-10T17:27:48;99770.22;;;15.98;32.00
59315;BME280;46521;50.160;20.802;2023-05-10T17:37:50;99766.98;;;15.61;32.56
59315;BME280;46521;50.160;20.802;2023-05-10T17:47:51;99778.52;;;15.34;32.54
59315;BME280;46521;50.160;20.802;2023-05-10T17:57:53;99785.95;;;15.10;32.43
59315;BME280;46521;50.160;20.802;2023-05-10T18:07:58;99799.07;;;14.83;33.35
59315;BME280;46521;50.160;20.802;2023-05-10T18:18:05;99799.70;;;14.64;32.91
59315;BME280;46521;50.160;20.802;2023-05-10T18:28:07;99818.52;;;14.40;33.59
59315;BME280;46521;50.160;20.802;2023-05-10T18:38:09;99820.48;;;14.17;33.44
59315;BME280;46521;50.160;20.802;2023-05-10T18:48:11;99840.33;;;13.99;33.97
59315;BME280;46521;50.160;20.802;2023-05-10T18:58:12;99848.70;;;13.81;34.03
59315;BME280;46521;50.160;20.802;2023-05-10T19:08:14;99858.69;;;13.64;34.44
59315;BME280;46521;50.160;20.802;2023-05-10T19:18:16;99857.03;;;13.48;34.71
59315;BME280;46521;50.160;20.802;2023-05-10T19:28:18;99865.13;;;13.32;35.68
59315;BME280;46521;50.160;20.802;2023-05-10T19:38:20;99862.55;;;13.24;35.49
59315;BME280;46521;50.160;20.802;2023-05-10T19:48:22;99867.66;;;13.10;36.05
59315;BME280;46521;50.160;20.802;2023-05-10T19:58:23;99862.13;;;12.97;35.75
59315;BME280;46521;50.160;20.802;2023-05-10T20:08:25;99863.54;;;12.85;36.84
59315;BME280;46521;50.160;20.802;2023-05-10T20:18:26;99874.86;;;12.78;37.04
59315;BME280;46521;50.160;20.802;2023-05-10T20:28:28;99862.19;;;12.66;36.59
59315;BME280;46521;50.160;20.802;2023-05-10T20:38:29;99872.69;;;12.59;37.24
59315;BME280;46521;50.160;20.802;2023-05-10T20:48:31;99879.39;;;12.47;37.76
59315;BME280;46521;50.160;20.802;2023-05-10T20:58:33;99878.00;;;12.28;38.17
59315;BME280;46521;50.160;20.802;2023-05-10T21:08:35;99880.67;;;12.19;37.72
59315;BME280;46521;50.160;20.802;2023-05-10T21:18:36;99875.93;;;12.06;37.85
59315;BME280;46521;50.160;20.802;2023-05-10T21:28:38;99882.26;;;11.97;38.33
59315;BME280;46521;50.160;20.802;2023-05-10T21:38:41;99882.61;;;11.86;38.93
59315;BME280;46521;50.160;20.802;2023-05-10T21:48:44;99885.45;;;11.76;39.42
59315;BME280;46521;50.160;20.802;2023-05-10T21:58:45;99886.00;;;11.63;39.83
59315;BME280;46521;50.160;20.802;2023-05-10T22:08:47;99884.69;;;11.51;40.24
59315;BME280;46521;50.160;20.802;2023-05-10T22:18:48;99885.38;;;11.36;40.04
59315;BME280;46521;50.160;20.802;2023-05-10T22:28:50;99893.98;;;11.14;40.48
59315;BME280;46521;50.160;20.802;2023-05-10T22:38:52;99898.93;;;10.76;41.12
59315;BME280;46521;50.160;20.802;2023-05-10T22:48:54;99907.98;;;10.49;42.10
59315;BME280;46521;50.160;20.802;2023-05-10T22:58:56;99907.06;;;10.32;42.42
59315;BME280;46521;50.160;20.802;2023-05-10T23:08:57;99906.34;;;10.21;42.70
59315;BME280;46521;50.160;20.802;2023-05-10T23:19:01;99905.69;;;10.19;42.94
59315;BME280;46521;50.160;20.802;2023-05-10T23:29:03;99903.02;;;10.11;43.02
59315;BME280;46521;50.160;20.802;2023-05-10T23:39:04;99906.92;;;9.99;43.69
59315;BME280;46521;50.160;20.802;2023-05-10T23:49:06;99909.84;;;9.87;43.83
